Time;durP1;ratioP1;P1;durP2;ratioP2;P2;SDS_P1;SDS_P2;PMS_P1;PMS_P2;Temp;Humidity;BMP_temperature;BMP_pressure;BME280_temperature;BME280_humidity;BME280_pressure;Samples;Min_cycle;Max_cycle;Signal;HPM_P1;HPM_P2
2022/01/24 00:01:44;;;;;;;0.03;0.03;;;6.80;99.90;;;;;;6221814;23;20463;-90
2022/01/24 00:04:11;;;;;;;0.10;0.10;;;6.80;99.90;;;;;;6223719;23;20044;-90
2022/01/24 00:06:40;;;;;;;0.10;0.10;;;6.80;99.90;;;;;;6225055;23;20090;-90
2022/01/24 00:09:07;;;;;;;0.10;0.10;;;6.90;99.90;;;;;;6198085;23;20024;-91
2022/01/24 00:28:20;;;;;;;0.08;0.08;;;;;;;;;;6231150;23;20031;-91
2022/01/24 00:30:48;;;;;;;0.10;0.10;;;6.70;99.90;;;;;;6226969;23;20019;-90
2022/01/24 00:33:18;;;;;;;0.10;0.10;;;6.70;99.90;;;;;;6225573;23;20020;-91
2022/01/24 00:35:45;;;;;;;0.10;0.10;;;6.70;99.90;;;;;;6250704;23;20127;-90
2022/01/24 00:38:12;;;;;;;0.10;0.10;;;7.30;99.90;;;;;;6201394;23;20020;-90
2022/01/24 00:40:42;;;;;;;0.10;0.10;;;6.80;99.90;;;;;;6223246;23;20016;-90
2022/01/24 00:43:47;;;;;;;0.10;0.10;;;6.80;99.90;;;;;;6247450;23;20020;-90
2022/01/24 00:46:02;;;;;;;0.03;0.03;;;6.80;99.90;;;;;;6246925;23;20024;-90
2022/01/24 00:56:10;;;;;;;0.10;0.10;;;7.00;99.90;;;;;;6223980;23;20028;-88
2022/01/24 00:58:37;;;;;;;0.10;0.10;;;6.70;99.90;;;;;;6224770;23;20016;-90
2022/01/24 01:01:07;;;;;;;0.10;0.10;;;6.80;99.90;;;;;;6224155;23;20401;-90
2022/01/24 01:03:34;;;;;;;0.10;0.10;;;6.80;99.90;;;;;;6200196;23;20021;-90
2022/01/24 01:06:05;;;;;;;0.10;0.10;;;6.80;99.90;;;;;;6224485;23;20020;-90
2022/01/24 01:19:41;;;;;;;0.10;0.10;;;6.80;99.90;;;;;;6233351;23;20021;-90
2022/01/24 01:22:08;;;;;;;0.10;0.10;;;6.70;99.90;;;;;;6228300;23;20363;-90
2022/01/24 01:24:41;;;;;;;0.00;0.00;;;6.70;99.90;;;;;;6252675;23;20720;-90
2022/01/24 01:27:14;;;;;;;0.10;0.10;;;6.70;99.90;;;;;;6250557;23;20047;-90
2022/01/24 01:29:59;;;;;;;0.10;0.10;;;6.70;99.90;;;;;;6250283;23;20047;-90
2022/01/24 01:35:21;;;;;;;0.10;0.10;;;6.80;99.90;;;;;;6231538;23;20020;-90
2022/01/24 01:57:02;;;;;;;0.10;0.10;;;6.60;99.90;;;;;;6232782;23;20024;-90
2022/01/24 01:59:29;;;;;;;0.10;0.10;;;;;;;;;;6225716;23;20024;-90
2022/01/24 02:01:57;;;;;;;0.10;0.10;;;6.60;99.90;;;;;;6225947;23;20023;-91
2022/01/24 02:04:25;;;;;;;0.10;0.10;;;6.60;99.90;;;;;;6225051;23;20013;-90
2022/01/24 02:06:52;;;;;;;0.10;0.10;;;6.60;99.90;;;;;;6227826;23;20467;-90
2022/01/24 02:09:19;;;;;;;0.10;0.10;;;6.70;99.90;;;;;;6251020;23;20021;-90
2022/01/24 02:11:48;;;;;;;0.10;0.10;;;6.70;99.90;;;;;;6224736;23;20082;-91
2022/01/24 02:14:18;;;;;;;0.10;0.10;;;6.70;99.90;;;;;;6223790;23;20016;-90
2022/01/24 02:16:55;;;;;;;;;;;6.70;99.90;;;;;;6200135;23;20020;-90
2022/01/24 02:24:39;;;;;;;0.10;0.10;;;6.70;99.90;;;;;;6229225;23;20016;-90
2022/01/24 02:27:07;;;;;;;0.10;0.10;;;6.70;99.90;;;;;;6203264;23;20020;-90
2022/01/24 02:29:53;;;;;;;0.10;0.10;;;6.70;99.90;;;;;;6201308;23;20020;-89
2022/01/24 02:32:20;;;;;;;0.10;0.10;;;6.70;99.90;;;;;;6199656;23;20020;-90
2022/01/24 02:34:49;;;;;;;0.10;0.10;;;6.80;99.90;;;;;;6174421;23;20021;-89
2022/01/24 02:37:19;;;;;;;0.10;0.10;;;6.80;99.90;;;;;;6199291;23;20470;-90
2022/01/24 02:39:53;;;;;;;0.10;0.10;;;;;;;;;;6173018;23;20052;-90
2022/01/24 02:53:13;;;;;;;0.10;0.10;;;6.80;99.90;;;;;;6225502;23;20043;-91
2022/01/24 02:55:41;;;;;;;0.10;0.10;;;6.80;99.90;;;;;;6197135;23;20024;-90
2022/01/24 02:58:08;;;;;;;0.10;0.10;;;6.80;99.90;;;;;;6195353;23;20119;-91
2022/01/24 03:00:37;;;;;;;0.10;0.10;;;6.80;99.90;;;;;;6195901;23;20020;-90
2022/01/24 03:03:05;;;;;;;0.10;0.10;;;6.80;99.90;;;;;;6195231;23;20020;-89
2022/01/24 03:05:32;;;;;;;0.10;0.10;;;6.80;99.90;;;;;;6197815;23;20079;-90
2022/01/24 03:07:59;;;;;;;0.10;0.10;;;6.80;99.90;;;;;;6197352;23;20020;-91
2022/01/24 03:10:36;;;;;;;0.10;0.10;;;6.80;99.90;;;;;;6171726;23;20120;-91
2022/01/24 03:15:51;;;;;;;0.10;0.10;;;6.80;99.90;;;;;;6225389;23;20083;-90
2022/01/24 03:18:19;;;;;;;0.10;0.10;;;6.80;99.90;;;;;;6172390;23;20027;-91
2022/01/24 03:20:48;;;;;;;0.10;0.10;;;6.80;99.90;;;;;;6196715;23;20020;-90
2022/01/24 03:23:16;;;;;;;0.10;0.10;;;6.80;99.90;;;;;;6173320;23;20074;-91
2022/01/24 03:25:45;;;;;;;0.10;0.10;;;6.80;99.90;;;;;;6245940;23;20027;-90
2022/01/24 03:28:12;;;;;;;0.10;0.10;;;6.80;99.90;;;;;;6222212;23;20036;-90
2022/01/24 03:30:41;;;;;;;0.10;0.10;;;6.80;99.90;;;;;;6248201;23;20020;-91
2022/01/24 03:33:09;;;;;;;0.10;0.10;;;7.40;99.90;;;;;;6198856;23;20021;-91
2022/01/24 03:35:36;;;;;;;0.10;0.10;;;6.80;99.90;;;;;;6220785;23;20027;-90
2022/01/24 03:38:04;;;;;;;0.10;0.10;;;6.80;99.90;;;;;;6220987;23;20035;-90
2022/01/24 03:40:31;;;;;;;0.10;0.10;;;6.80;99.90;;;;;;6194758;23;20024;-90
2022/01/24 03:42:59;;;;;;;0.10;0.10;;;6.80;99.90;;;;;;6196194;23;20451;-90
2022/01/24 03:45:39;;;;;;;0.10;0.10;;;6.80;99.90;;;;;;6220719;23;20020;-91
2022/01/24 03:50:34;;;;;;;0.10;0.10;;;6.80;99.90;;;;;;6221705;23;20086;-90
2022/01/24 03:53:01;;;;;;;0.10;0.10;;;6.80;99.90;;;;;;6222190;23;20399;-90
2022/01/24 03:55:29;;;;;;;0.10;0.10;;;;;;;;;;6196655;23;20079;-90
2022/01/24 03:57:55;;;;;;;0.10;0.10;;;6.80;99.90;;;;;;6196964;23;20024;-90
2022/01/24 04:00:24;;;;;;;0.10;0.10;;;6.80;99.90;;;;;;6223080;23;20097;-90
2022/01/24 04:02:50;;;;;;;0.10;0.10;;;6.80;99.90;;;;;;6221934;23;20021;-90
2022/01/24 04:05:18;;;;;;;0.10;0.10;;;6.80;99.90;;;;;;6222755;23;20341;-90
2022/01/24 04:07:44;;;;;;;0.10;0.10;;;6.80;99.90;;;;;;6247109;23;20032;-90
2022/01/24 04:10:12;;;;;;;0.10;0.10;;;6.70;99.90;;;;;;6221562;23;20083;-91
2022/01/24 04:12:40;;;;;;;0.10;0.10;;;6.80;99.90;;;;;;6221357;23;20020;-90
2022/01/24 04:23:42;;;;;;;0.10;0.10;;;;;;;;;;6227814;23;20024;-91
2022/01/24 04:26:08;;;;;;;0.10;0.10;;;6.70;99.90;;;;;;6198325;23;20443;-90
2022/01/24 04:28:35;;;;;;;0.10;0.10;;;6.80;99.90;;;;;;6196663;23;20020;-90
2022/01/24 04:31:04;;;;;;;0.10;0.10;;;6.70;99.90;;;;;;6198208;23;20094;-90
2022/01/24 04:33:31;;;;;;;0.10;0.10;;;6.70;99.90;;;;;;6197301;23;20023;-90
2022/01/24 04:35:58;;;;;;;0.10;0.10;;;6.70;99.90;;;;;;6198441;23;20024;-91
2022/01/24 04:38:25;;;;;;;0.00;0.00;;;6.70;99.90;;;;;;6198566;23;20021;-90
2022/01/24 04:40:57;;;;;;;0.10;0.10;;;;;;;;;;6223493;23;20083;-90
2022/01/24 04:46:15;;;;;;;0.10;0.10;;;6.70;99.90;;;;;;6222315;23;20040;-91
2022/01/24 04:51:40;;;;;;;0.10;0.10;;;6.70;99.90;;;;;;6227334;23;20021;-90
2022/01/24 04:56:38;;;;;;;0.10;0.10;;;6.70;99.90;;;;;;6227629;23;20075;-90
2022/01/24 04:59:07;;;;;;;0.10;0.10;;;6.70;99.90;;;;;;6198153;23;20020;-89
2022/01/24 05:01:34;;;;;;;0.10;0.10;;;6.70;99.90;;;;;;6199848;23;20023;-90
2022/01/24 05:04:03;;;;;;;0.10;0.10;;;6.70;99.90;;;;;;6226048;23;20020;-90
2022/01/24 05:06:30;;;;;;;0.10;0.10;;;6.70;99.90;;;;;;6223469;23;20020;-90
2022/01/24 05:08:57;;;;;;;0.10;0.10;;;6.70;99.90;;;;;;6199589;23;20079;-90
2022/01/24 05:11:38;;;;;;;0.10;0.10;;;6.70;99.90;;;;;;6200136;23;20383;-90
2022/01/24 05:25:28;;;;;;;0.10;0.10;;;6.50;99.90;;;;;;6135015;23;20079;-90
2022/01/24 05:27:55;;;;;;;0.10;0.10;;;6.60;99.90;;;;;;6185842;23;20031;-88
2022/01/24 05:30:23;;;;;;;0.10;0.10;;;;;;;;;;6160353;23;20021;-89
2022/01/24 05:32:50;;;;;;;0.10;0.10;;;6.60;99.90;;;;;;6135516;23;20017;-90
2022/01/24 05:35:18;;;;;;;0.10;0.10;;;6.60;99.90;;;;;;6159257;23;20017;-89
2022/01/24 05:37:45;;;;;;;0.00;0.00;;;6.60;99.90;;;;;;6160476;23;20295;-89
2022/01/24 05:40:12;;;;;;;0.10;0.10;;;6.60;99.90;;;;;;6136054;23;20025;-89
2022/01/24 05:42:39;;;;;;;0.00;0.00;;;6.60;99.90;;;;;;6186023;23;20013;-89
2022/01/24 05:45:07;;;;;;;0.10;0.10;;;6.70;99.90;;;;;;6186893;23;20028;-90
2022/01/24 05:47:34;;;;;;;0.10;0.10;;;6.70;99.90;;;;;;6186206;23;20017;-90
2022/01/24 05:50:02;;;;;;;0.10;0.10;;;6.70;99.90;;;;;;6184652;23;20368;-90
2022/01/24 05:52:31;;;;;;;0.10;0.10;;;6.70;99.90;;;;;;6185733;23;20028;-89
2022/01/24 05:54:58;;;;;;;0.10;0.10;;;6.70;99.90;;;;;;6184355;23;20411;-89
2022/01/24 05:57:25;;;;;;;0.10;0.10;;;6.70;99.90;;;;;;6160712;23;20036;-90
2022/01/24 05:59:52;;;;;;;0.10;0.10;;;6.60;99.90;;;;;;6188611;23;20025;-89
2022/01/24 06:02:19;;;;;;;0.10;0.10;;;6.60;99.90;;;;;;6186266;23;20020;-90
2022/01/24 06:04:46;;;;;;;0.10;0.10;;;8.30;99.90;;;;;;6171263;23;20021;-91
2022/01/24 06:07:13;;;;;;;0.10;0.10;;;6.60;99.90;;;;;;6168011;23;20021;-89
2022/01/24 06:09:41;;;;;;;0.10;0.10;;;6.50;99.90;;;;;;6166544;23;20072;-90
2022/01/24 06:12:10;;;;;;;0.10;0.10;;;6.60;99.90;;;;;;6187774;23;20029;-90
2022/01/24 06:14:37;;;;;;;0.10;0.10;;;6.50;99.90;;;;;;6190254;23;20021;-89
2022/01/24 06:17:04;;;;;;;0.00;0.00;;;6.50;99.90;;;;;;6191225;23;20021;-89
2022/01/24 06:19:31;;;;;;;0.10;0.10;;;6.60;99.90;;;;;;6191159;23;20021;-89
2022/01/24 06:21:57;;;;;;;0.10;0.10;;;6.50;99.90;;;;;;6193628;23;20017;-90
2022/01/24 06:24:24;;;;;;;0.10;0.10;;;6.60;99.90;;;;;;6229531;23;20032;-90
2022/01/24 06:27:13;;;;;;;0.10;0.10;;;6.60;99.90;;;;;;6220348;23;20031;-89
2022/01/24 06:29:39;;;;;;;0.10;0.10;;;6.50;99.90;;;;;;6221760;23;20020;-89
2022/01/24 06:32:07;;;;;;;0.10;0.10;;;7.60;99.90;;;;;;6244972;23;20387;-91
2022/01/24 06:34:37;;;;;;;0.10;0.10;;;6.50;99.90;;;;;;6194634;23;20020;-89
2022/01/24 06:37:20;;;;;;;0.10;0.10;;;6.60;99.90;;;;;;6208824;23;20092;-90
2022/01/24 06:39:47;;;;;;;0.10;0.10;;;5.70;99.90;;;;;;6217725;23;20259;-90
2022/01/24 06:42:22;;;;;;;0.10;0.10;;;6.60;99.90;;;;;;6218485;23;20041;-88
2022/01/24 06:44:50;;;;;;;0.03;0.03;;;;;;;;;;6242575;23;20017;-89
2022/01/24 06:47:17;;;;;;;0.10;0.10;;;6.60;99.90;;;;;;6217956;23;20028;-89
2022/01/24 06:49:44;;;;;;;0.05;0.05;;;6.60;99.90;;;;;;6221599;23;20066;-88
2022/01/24 06:52:13;;;;;;;0.05;0.05;;;8.30;99.90;;;;;;6222184;23;20017;-89
2022/01/24 06:54:42;;;;;;;0.10;0.10;;;6.60;99.90;;;;;;6220786;23;20311;-89
2022/01/24 06:57:11;;;;;;;0.03;0.03;;;7.90;99.90;;;;;;6221118;23;20020;-90
2022/01/24 06:59:40;;;;;;;0.10;0.10;;;6.60;99.90;;;;;;6222040;23;20028;-90
2022/01/24 07:02:09;;;;;;;0.08;0.08;;;6.60;99.90;;;;;;6221368;23;20020;-91
2022/01/24 07:04:39;;;;;;;0.10;0.10;;;6.60;99.90;;;;;;6222073;23;20027;-89
2022/01/24 07:07:07;;;;;;;0.10;0.10;;;6.60;99.90;;;;;;6244679;23;20055;-91
2022/01/24 07:09:34;;;;;;;0.10;0.10;;;6.60;99.90;;;;;;6221285;23;20028;-90
2022/01/24 07:12:01;;;;;;;0.10;0.10;;;;;;;;;;6218489;23;20024;-90
2022/01/24 07:14:29;;;;;;;0.10;0.10;;;;;;;;;;6219609;23;20027;-90
2022/01/24 07:19:29;;;;;;;0.10;0.10;;;6.70;99.90;;;;;;6231881;23;20024;-89
2022/01/24 07:21:58;;;;;;;0.10;0.10;;;6.70;99.90;;;;;;6224819;23;20393;-90
2022/01/24 07:24:26;;;;;;;0.10;0.10;;;6.70;99.90;;;;;;6222889;23;20494;-89
2022/01/24 07:26:53;;;;;;;0.10;0.10;;;;;;;;;;6229533;23;20020;-89
2022/01/24 07:29:21;;;;;;;0.10;0.10;;;;;;;;;;6230765;23;20028;-89
2022/01/24 07:31:48;;;;;;;0.10;0.10;;;;;;;;;;6228901;23;20032;-90
2022/01/24 07:34:17;;;;;;;0.00;0.00;;;6.50;99.90;;;;;;6229014;23;20035;-90
2022/01/24 07:36:44;;;;;;;0.00;0.00;;;;;;;;;;6258179;23;20039;-89
2022/01/24 07:39:11;;;;;;;0.10;0.10;;;;;;;;;;6235531;23;20016;-89
2022/01/24 07:41:47;;;;;;;0.10;0.10;;;;;;;;;;6234657;23;20047;-90
2022/01/24 07:44:16;;;;;;;0.10;0.10;;;6.30;99.90;;;;;;6230916;23;20025;-90
2022/01/24 07:46:43;;;;;;;0.10;0.10;;;6.20;99.90;;;;;;6267740;23;20054;-90
2022/01/24 07:49:12;;;;;;;0.10;0.10;;;;;;;;;;6232729;23;20021;-90
2022/01/24 07:51:41;;;;;;;0.10;0.10;;;6.30;99.90;;;;;;6231963;23;20025;-90
2022/01/24 07:54:11;;;;;;;0.10;0.10;;;6.30;99.90;;;;;;6228523;23;20020;-91
2022/01/24 07:56:38;;;;;;;0.10;0.10;;;6.40;99.90;;;;;;6229011;23;20020;-90
2022/01/24 07:59:06;;;;;;;0.10;0.10;;;7.70;99.90;;;;;;6252842;23;20027;-89
2022/01/24 08:01:33;;;;;;;0.10;0.10;;;;;;;;;;6226366;23;20020;-90
2022/01/24 08:04:00;;;;;;;0.10;0.10;;;6.50;99.90;;;;;;6199052;23;20024;-90
2022/01/24 08:06:27;;;;;;;0.10;0.10;;;;;;;;;;6197942;23;20035;-89
2022/01/24 08:08:56;;;;;;;0.10;0.10;;;6.50;99.90;;;;;;6198245;23;20031;-89
2022/01/24 08:11:23;;;;;;;0.10;0.10;;;6.60;99.90;;;;;;6220758;23;20024;-90
2022/01/24 08:13:51;;;;;;;0.10;0.10;;;6.60;99.90;;;;;;6247148;23;20025;-91
2022/01/24 08:16:20;;;;;;;0.10;0.10;;;6.60;99.90;;;;;;6219923;23;20027;-90
2022/01/24 08:18:51;;;;;;;0.10;0.10;;;6.60;99.90;;;;;;6192725;23;20328;-90
2022/01/24 08:21:18;;;;;;;0.10;0.10;;;6.60;99.90;;;;;;6192612;23;20028;-90
2022/01/24 08:23:45;;;;;;;0.10;0.10;;;6.60;99.90;;;;;;6217845;23;20360;-91
2022/01/24 08:26:14;;;;;;;0.10;0.10;;;6.60;99.90;;;;;;6221312;23;20043;-90
2022/01/24 08:28:41;;;;;;;0.10;0.10;;;8.00;99.90;;;;;;6218880;23;20056;-89
2022/01/24 08:31:08;;;;;;;0.10;0.10;;;6.60;99.90;;;;;;6220110;23;20028;-91
2022/01/24 08:33:35;;;;;;;0.10;0.10;;;6.60;99.90;;;;;;6218097;23;20024;-90
2022/01/24 08:36:03;;;;;;;0.10;0.10;;;6.60;99.90;;;;;;6219488;23;20024;-90
2022/01/24 08:38:34;;;;;;;0.10;0.10;;;6.60;99.90;;;;;;6222927;23;20020;-89
2022/01/24 08:41:05;;;;;;;0.10;0.10;;;6.60;99.90;;;;;;6220538;23;20020;-90
2022/01/24 08:43:57;;;;;;;0.10;0.10;;;6.60;99.90;;;;;;6218818;23;20348;-90
2022/01/24 08:46:25;;;;;;;0.10;0.10;;;6.70;99.90;;;;;;6218741;23;20074;-91
2022/01/24 08:48:52;;;;;;;0.10;0.10;;;6.60;99.90;;;;;;6243089;23;20344;-90
2022/01/24 08:51:19;;;;;;;0.10;0.10;;;6.60;99.90;;;;;;6217601;23;20025;-90
2022/01/24 08:54:01;;;;;;;0.10;0.10;;;6.60;99.90;;;;;;6217729;23;20013;-90
2022/01/24 08:56:28;;;;;;;0.10;0.10;;;6.70;99.90;;;;;;6217719;23;20021;-91
2022/01/24 08:58:57;;;;;;;0.10;0.10;;;6.60;99.90;;;;;;6216941;23;20047;-90
2022/01/24 09:01:24;;;;;;;0.10;0.10;;;7.50;99.90;;;;;;6219706;23;20216;-90
2022/01/24 09:03:51;;;;;;;0.10;0.10;;;6.70;99.90;;;;;;6217761;23;20071;-90
2022/01/24 09:06:20;;;;;;;0.10;0.10;;;6.70;99.90;;;;;;6219707;23;20020;-91
2022/01/24 09:08:55;;;;;;;0.10;0.10;;;6.70;99.90;;;;;;6194560;23;20348;-90
2022/01/24 09:11:23;;;;;;;0.10;0.10;;;6.70;99.90;;;;;;6190943;23;20295;-90
2022/01/24 09:13:50;;;;;;;0.10;0.10;;;6.70;99.90;;;;;;6214941;23;20012;-90
2022/01/24 09:16:19;;;;;;;0.10;0.10;;;6.70;99.90;;;;;;6216511;23;20020;-90
2022/01/24 09:18:46;;;;;;;0.00;0.00;;;6.70;99.90;;;;;;6216405;23;20325;-89
2022/01/24 09:21:14;;;;;;;0.10;0.10;;;6.70;99.90;;;;;;6217838;23;20028;-90
2022/01/24 09:23:41;;;;;;;0.00;0.00;;;6.70;99.90;;;;;;6218854;23;20017;-90
2022/01/24 09:26:08;;;;;;;0.10;0.10;;;6.70;99.90;;;;;;6218965;23;20032;-91
2022/01/24 09:28:35;;;;;;;0.10;0.10;;;6.60;99.90;;;;;;6219497;23;20079;-89
2022/01/24 09:31:02;;;;;;;0.10;0.10;;;6.70;99.90;;;;;;6245033;23;20027;-91
2022/01/24 09:33:32;;;;;;;0.10;0.10;;;6.70;99.90;;;;;;6218387;23;20043;-89
2022/01/24 09:36:00;;;;;;;0.13;0.13;;;6.70;99.90;;;;;;6193790;23;20071;-91
2022/01/24 09:38:29;;;;;;;0.10;0.10;;;6.70;99.90;;;;;;6243597;23;20020;-91
2022/01/24 09:40:58;;;;;;;0.10;0.10;;;6.70;99.90;;;;;;6194850;23;20024;-90
2022/01/24 09:43:25;;;;;;;0.10;0.10;;;6.70;99.90;;;;;;6218253;23;20095;-90
2022/01/24 09:45:52;;;;;;;0.10;0.10;;;6.70;99.90;;;;;;6219050;23;20028;-90
2022/01/24 09:48:20;;;;;;;0.10;0.10;;;6.70;99.90;;;;;;6215404;23;20061;-90
2022/01/24 09:50:51;;;;;;;0.10;0.10;;;6.70;99.90;;;;;;6189941;23;20345;-90
2022/01/24 09:53:18;;;;;;;0.10;0.10;;;6.70;99.90;;;;;;6190514;23;20017;-90
2022/01/24 09:55:46;;;;;;;0.10;0.10;;;6.70;99.90;;;;;;6190266;23;20028;-90
2022/01/24 09:58:13;;;;;;;0.10;0.10;;;6.70;99.90;;;;;;6216980;23;20027;-90
2022/01/24 10:00:40;;;;;;;0.10;0.10;;;6.70;99.90;;;;;;6192120;23;20391;-91
2022/01/24 10:03:07;;;;;;;0.10;0.10;;;6.70;99.90;;;;;;6193829;23;20016;-90
2022/01/24 10:05:56;;;;;;;0.10;0.10;;;6.70;99.90;;;;;;6220619;23;20104;-89
2022/01/24 10:08:30;;;;;;;0.10;0.10;;;6.70;99.90;;;;;;6223764;23;20020;-90
2022/01/24 10:11:01;;;;;;;0.10;0.10;;;6.70;99.90;;;;;;6198642;23;20016;-91
2022/01/24 10:16:25;;;;;;;0.05;0.05;;;6.60;99.90;;;;;;6223617;23;20016;-90
2022/01/24 10:19:05;;;;;;;0.10;0.10;;;6.60;99.90;;;;;;6248380;23;20021;-90
2022/01/24 10:21:54;;;;;;;0.10;0.10;;;6.60;99.90;;;;;;6224290;23;20084;-91
2022/01/24 10:24:34;;;;;;;0.10;0.10;;;6.60;99.90;;;;;;6220841;23;20460;-91
2022/01/24 10:27:10;;;;;;;0.10;0.10;;;6.60;99.90;;;;;;6220957;23;20020;-90
2022/01/24 10:29:43;;;;;;;0.10;0.10;;;6.60;99.90;;;;;;6225641;23;20025;-90
2022/01/24 10:32:36;;;;;;;0.10;0.10;;;6.60;99.90;;;;;;6197224;23;20020;-92
2022/01/24 10:35:23;;;;;;;0.10;0.10;;;6.60;99.90;;;;;;6223755;23;20019;-89
2022/01/24 10:38:13;;;;;;;0.10;0.10;;;6.50;99.90;;;;;;6226628;23;20024;-91
2022/01/24 10:40:54;;;;;;;0.10;0.10;;;6.50;99.90;;;;;;6226970;23;20016;-88
2022/01/24 10:43:23;;;;;;;0.10;0.10;;;6.40;99.90;;;;;;6257226;23;20067;-91
2022/01/24 10:45:52;;;;;;;0.10;0.10;;;6.50;99.90;;;;;;6229169;23;20022;-90
2022/01/24 10:48:22;;;;;;;0.10;0.10;;;6.40;99.90;;;;;;6226107;23;20025;-91
2022/01/24 10:51:05;;;;;;;0.20;0.20;;;6.50;99.90;;;;;;6220830;23;20025;-90
2022/01/24 10:53:42;;;;;;;0.10;0.10;;;6.60;99.90;;;;;;6194615;23;20021;-91
2022/01/24 10:56:32;;;;;;;0.10;0.10;;;6.60;99.90;;;;;;6219226;23;20027;-89
2022/01/24 10:59:11;;;;;;;0.10;0.10;;;6.60;99.90;;;;;;6220797;23;20021;-90
2022/01/24 11:01:39;;;;;;;0.10;0.10;;;6.60;99.90;;;;;;6220840;23;20025;-89
2022/01/24 11:04:09;;;;;;;0.10;0.10;;;6.60;99.90;;;;;;6222675;23;20357;-90
2022/01/24 11:06:38;;;;;;;0.10;0.10;;;6.40;99.90;;;;;;6220765;23;20047;-90
2022/01/24 11:09:22;;;;;;;0.10;0.10;;;6.60;99.90;;;;;;6195489;23;20329;-89
2022/01/24 11:11:51;;;;;;;0.00;0.00;;;6.60;99.90;;;;;;6220119;23;20031;-90
2022/01/24 11:14:20;;;;;;;0.10;0.10;;;6.70;99.90;;;;;;6243992;23;20458;-91
2022/01/24 11:16:48;;;;;;;0.10;0.10;;;6.70;99.90;;;;;;6219795;23;20020;-90
2022/01/24 11:19:22;;;;;;;0.10;0.10;;;6.70;99.90;;;;;;6220235;23;20020;-90
2022/01/24 11:21:52;;;;;;;0.10;0.10;;;6.70;99.90;;;;;;6232422;23;20021;-89
2022/01/24 11:24:26;;;;;;;;;;;6.70;99.90;;;;;;6216780;23;20027;-89
2022/01/24 11:26:53;;;;;;;0.10;0.10;;;;;;;;;;6241964;23;19917;-90
2022/01/24 11:29:21;;;;;;;0.10;0.10;;;6.70;99.90;;;;;;6216739;23;20016;-88
2022/01/24 11:31:57;;;;;;;0.10;0.10;;;6.60;99.90;;;;;;6241645;22;20016;-89
2022/01/24 11:34:32;;;;;;;0.10;0.10;;;6.60;99.90;;;;;;6241379;23;20000;-89
2022/01/24 11:36:59;;;;;;;0.10;0.10;;;6.70;99.90;;;;;;6241764;23;20017;-88
2022/01/24 11:39:28;;;;;;;0.10;0.10;;;6.70;99.90;;;;;;6241086;23;20021;-89
2022/01/24 11:41:55;;;;;;;0.10;0.10;;;6.40;99.90;;;;;;6241227;23;20027;-89
2022/01/24 11:44:23;;;;;;;0.10;0.10;;;7.90;99.90;;;;;;6242582;22;20011;-88
2022/01/24 11:46:52;;;;;;;0.10;0.10;;;6.70;99.90;;;;;;6242639;22;20057;-89
2022/01/24 11:49:25;;;;;;;0.10;0.10;;;6.70;99.90;;;;;;6243171;22;20005;-89
2022/01/24 11:52:02;;;;;;;0.10;0.10;;;8.20;99.90;;;;;;6242813;22;20056;-88
2022/01/24 11:57:24;;;;;;;0.10;0.10;;;6.50;99.90;;;;;;6241574;22;20017;-90
2022/01/24 11:59:52;;;;;;;0.10;0.10;;;6.50;99.90;;;;;;6240513;22;20017;-89
2022/01/24 12:02:23;;;;;;;0.10;0.10;;;6.50;99.90;;;;;;6240763;22;20085;-89
2022/01/24 12:04:53;;;;;;;0.10;0.10;;;6.50;99.90;;;;;;6265886;22;20012;-88
2022/01/24 12:07:22;;;;;;;0.10;0.10;;;6.50;99.90;;;;;;6240871;22;20072;-88
2022/01/24 12:09:52;;;;;;;0.10;0.10;;;6.50;99.90;;;;;;6240643;22;20017;-89
2022/01/24 12:12:39;;;;;;;0.10;0.10;;;6.60;99.90;;;;;;6240169;22;20004;-88
2022/01/24 12:15:11;;;;;;;0.10;0.10;;;6.60;99.90;;;;;;6240538;22;20018;-88
2022/01/24 12:17:47;;;;;;;0.10;0.10;;;6.60;99.90;;;;;;6264565;22;20016;-89
2022/01/24 12:20:54;;;;;;;0.10;0.10;;;6.60;99.90;;;;;;6236592;23;20075;-89
2022/01/24 12:23:36;;;;;;;0.10;0.10;;;6.60;99.90;;;;;;6227925;22;20021;-89
2022/01/24 12:26:35;;;;;;;0.10;0.10;;;6.70;99.90;;;;;;6228442;23;20024;-84
2022/01/24 12:29:06;;;;;;;0.10;0.10;;;6.70;99.90;;;;;;6211401;23;20037;-88
2022/01/24 12:31:44;;;;;;;0.10;0.10;;;6.70;99.90;;;;;;6211586;23;20020;-89
2022/01/24 12:34:21;;;;;;;0.10;0.10;;;6.70;99.90;;;;;;6262335;23;20011;-90
2022/01/24 12:37:12;;;;;;;0.03;0.03;;;6.80;99.90;;;;;;6239696;23;20051;-88
2022/01/24 12:39:51;;;;;;;0.10;0.10;;;6.70;99.90;;;;;;6238596;23;20036;-87
2022/01/24 12:42:58;;;;;;;0.10;0.10;;;6.70;99.90;;;;;;6239033;23;20055;-87
2022/01/24 12:49:12;;;;;;;0.10;0.10;;;6.80;99.90;;;;;;6240986;22;20066;-89
2022/01/24 12:51:40;;;;;;;0.10;0.10;;;;;;;;;;6237627;23;20017;-89
2022/01/24 12:54:07;;;;;;;0.10;0.10;;;;;;;;;;6237229;23;20077;-89
2022/01/24 12:56:35;;;;;;;0.10;0.10;;;;;;;;;;6233679;23;20327;-90
2022/01/24 12:59:05;;;;;;;0.10;0.10;;;6.80;99.90;;;;;;6233087;23;20044;-90
2022/01/24 13:01:35;;;;;;;0.00;0.00;;;6.80;99.90;;;;;;6221392;23;20020;-87
2022/01/24 13:04:10;;;;;;;0.10;0.10;;;6.80;99.90;;;;;;6220049;23;20035;-87
2022/01/24 13:06:39;;;;;;;0.10;0.10;;;6.80;99.90;;;;;;6223011;23;20087;-89
2022/01/24 13:09:13;;;;;;;0.03;0.03;;;6.80;99.90;;;;;;6222773;23;20017;-88
2022/01/24 13:11:45;;;;;;;0.10;0.10;;;6.80;99.90;;;;;;6226151;23;20009;-88
2022/01/24 13:14:30;;;;;;;0.10;0.10;;;6.80;99.90;;;;;;6228863;23;20040;-89
2022/01/24 13:25:11;;;;;;;0.08;0.08;;;6.80;99.90;;;;;;6192354;23;20043;-90
2022/01/24 13:27:41;;;;;;;0.10;0.10;;;6.70;99.90;;;;;;6161825;23;20017;-88
2022/01/24 13:30:13;;;;;;;0.10;0.10;;;6.80;99.90;;;;;;6160475;23;20017;-90
2022/01/24 13:32:47;;;;;;;0.10;0.10;;;6.80;99.90;;;;;;6161714;23;20021;-90
2022/01/24 13:35:20;;;;;;;0.10;0.10;;;6.80;99.90;;;;;;6163433;23;20017;-89
2022/01/24 13:37:47;;;;;;;0.10;0.10;;;6.80;99.90;;;;;;6164838;23;20024;-88
2022/01/24 13:40:14;;;;;;;0.10;0.10;;;7.20;99.90;;;;;;6163499;23;20084;-88
2022/01/24 13:42:42;;;;;;;0.10;0.10;;;6.80;99.90;;;;;;6165163;23;20021;-89
2022/01/24 13:45:10;;;;;;;0.10;0.10;;;6.90;99.90;;;;;;6162875;23;20238;-88
2022/01/24 13:47:37;;;;;;;0.10;0.10;;;6.80;99.90;;;;;;6170583;23;20441;-87
2022/01/24 13:50:06;;;;;;;0.10;0.10;;;6.80;99.90;;;;;;6159965;23;20091;-90
2022/01/24 13:52:32;;;;;;;0.10;0.10;;;6.80;99.90;;;;;;6159870;23;20521;-88
2022/01/24 13:55:16;;;;;;;0.10;0.10;;;6.80;99.90;;;;;;6192596;23;20096;-89
2022/01/24 13:57:45;;;;;;;0.10;0.10;;;6.90;99.90;;;;;;6173586;23;20052;-88
2022/01/24 14:00:22;;;;;;;0.10;0.10;;;6.90;99.90;;;;;;6195395;23;20080;-88
2022/01/24 14:02:52;;;;;;;0.10;0.10;;;6.80;99.90;;;;;;6163337;23;20080;-89
2022/01/24 14:05:39;;;;;;;0.10;0.10;;;6.80;99.90;;;;;;6190980;23;20012;-88
2022/01/24 14:08:14;;;;;;;0.10;0.10;;;6.80;99.90;;;;;;6164642;23;20064;-88
2022/01/24 14:10:42;;;;;;;0.10;0.10;;;;;;;;;;6189773;23;20033;-90
2022/01/24 14:13:11;;;;;;;0.10;0.10;;;;;;;;;;6170242;23;20017;-88
2022/01/24 14:15:55;;;;;;;0.10;0.10;;;6.80;99.90;;;;;;6169928;23;20040;-89
2022/01/24 14:18:31;;;;;;;0.10;0.10;;;6.80;99.90;;;;;;6177878;23;20055;-88
2022/01/24 14:21:21;;;;;;;0.10;0.10;;;;;;;;;;6167581;23;20075;-89
2022/01/24 14:23:51;;;;;;;0.10;0.10;;;6.70;99.90;;;;;;6165781;23;20020;-88
2022/01/24 14:26:21;;;;;;;0.10;0.10;;;6.80;99.90;;;;;;6166822;23;20048;-89
2022/01/24 14:29:02;;;;;;;0.10;0.10;;;6.70;99.90;;;;;;6165345;23;20021;-87
2022/01/24 14:31:30;;;;;;;0.10;0.10;;;6.70;99.90;;;;;;6166784;23;20025;-87
2022/01/24 14:34:00;;;;;;;0.10;0.10;;;6.70;99.90;;;;;;6166603;23;20021;-89
2022/01/24 14:36:27;;;;;;;0.10;0.10;;;6.70;99.90;;;;;;6168936;23;20025;-89
2022/01/24 14:39:00;;;;;;;0.10;0.10;;;6.80;99.90;;;;;;6167308;23;20020;-89
2022/01/24 14:41:39;;;;;;;0.10;0.10;;;6.70;99.90;;;;;;6164463;23;20075;-89
2022/01/24 14:46:56;;;;;;;0.10;0.10;;;6.80;99.90;;;;;;6197127;23;20017;-87
2022/01/24 14:49:24;;;;;;;;;;;6.80;99.90;;;;;;6202215;23;20017;-86
2022/01/24 14:51:54;;;;;;;0.10;0.10;;;6.80;99.90;;;;;;6204448;23;19946;-89
2022/01/24 14:54:23;;;;;;;0.10;0.10;;;6.70;99.90;;;;;;6150698;23;19997;-89
2022/01/24 14:56:52;;;;;;;0.10;0.10;;;6.50;99.90;;;;;;6156935;23;20024;-89
2022/01/24 14:59:19;;;;;;;0.10;0.10;;;6.50;99.90;;;;;;6174954;23;20036;-88
2022/01/24 15:01:46;;;;;;;0.10;0.10;;;6.50;99.90;;;;;;6173207;23;20028;-88
2022/01/24 15:04:15;;;;;;;0.10;0.10;;;6.50;99.90;;;;;;6176929;23;20013;-88
2022/01/24 15:06:44;;;;;;;0.00;0.00;;;6.50;99.90;;;;;;6176512;23;20021;-89
2022/01/24 15:09:13;;;;;;;0.00;0.00;;;6.50;99.90;;;;;;6170400;23;20348;-88
2022/01/24 15:11:42;;;;;;;0.10;0.10;;;6.50;99.90;;;;;;6172863;23;20025;-90
2022/01/24 15:14:16;;;;;;;;;;;6.50;99.90;;;;;;6179330;23;20287;-90
2022/01/24 15:25:45;;;;;;;0.10;0.10;;;;;;;;;;6205628;23;20021;-90
2022/01/24 15:28:17;;;;;;;0.10;0.10;;;;;;;;;;6179216;23;20027;-89
2022/01/24 15:30:45;;;;;;;0.10;0.10;;;;;;;;;;6178657;23;20021;-89
2022/01/24 15:33:12;;;;;;;0.10;0.10;;;;;;;;;;6176509;23;20044;-90
2022/01/24 15:35:40;;;;;;;0.10;0.10;;;6.40;99.90;;;;;;6177383;23;20017;-90
2022/01/24 15:38:07;;;;;;;0.10;0.10;;;;;;;;;;6176705;23;20021;-89
2022/01/24 15:40:36;;;;;;;0.00;0.00;;;6.40;99.90;;;;;;6176217;23;20235;-91
2022/01/24 15:45:42;;;;;;;;;;;6.50;99.90;;;;;;6200822;23;20050;-90
2022/01/24 15:48:10;;;;;;;0.00;0.00;;;;;;;;;;6153514;23;19915;-91